La Blanca, Texas
Current Conditions -  °F | °C
As of 10:55 AM on Tuesday 27 Jan 2015 (Local Time) from KT65 Reporting Station
Clear Clear  
Wind Chill: 21°   Ceiling: Unl
Heat Index: 21°   Visibility: 7mi
Dew Point:   Wind: 3mph
Humidity: 34%   Direction: 260°W
Pressure: 30.25"   Gusts: NA
Location:  26.29°N, 98.04°W
Report Text: KT65 271655Z AUTO 26003KT 7SM CLR 21/05 A3025 RMK AO2 T02140051
Loading
Personal Weather Stations






























Interactive Weather Map New forecast layout! Learn more

10-Day Weather Forecast

Advertisements
Track Severe Weather on mobile